Time;durP1;ratioP1;P1;durP2;ratioP2;P2;SDS_P1;SDS_P2;PMS_P1;PMS_P2;Temp;Humidity;BMP_temperature;BMP_pressure;BME280_temperature;BME280_humidity;BME280_pressure;Samples;Min_cycle;Max_cycle;Signal;HPM_P1;HPM_P2
2022/03/11 00:00:26;;;;;;;;;;;;;;;;;;1018522;29;2484;-71
2022/03/11 00:01:12;;;;;;;;;;;;;;;;;;1022294;28;4205;-71
2022/03/11 00:01:42;;;;;;;;;;;;;;;;;;1021722;28;2629;-71
2022/03/11 00:02:13;;;;;;;;;;;;;;;;;;1021125;28;3591;-71
2022/03/11 00:02:43;;;;;;;;;;;;;;;;;;1016228;29;4456;-71
2022/03/11 00:03:13;;;;;;;;;;;;;;;;;;1018139;29;3661;-71
2022/03/11 00:03:44;;;;;;;;;;;;;;;;;;1017657;29;4099;-71
2022/03/11 00:04:14;;;;;;;;;;;;;;;;;;1016802;29;3502;-71
2022/03/11 00:04:46;;;;;;;;;;;;;;;;;;1021665;28;4126;-71
2022/03/11 00:05:16;;;;;;;;;;;;;;;;;;1021692;28;2754;-71
2022/03/11 00:05:47;;;;;;;;;;;;;;;;;;1018876;29;4023;-71
2022/03/11 00:06:17;;;;;;;;;;;;;;;;;;1017756;29;2120;-71
2022/03/11 00:06:47;;;;;;;;;;;;;;;;;;1016501;29;4052;-71
2022/03/11 00:07:18;;;;;;;;;;;;;;;;;;1018739;29;2783;-71
2022/03/11 00:07:48;;;;;;;;;;;;;;;;;;1016757;29;4103;-71
2022/03/11 00:08:22;;;;;;;;;;;;;;;;;;1017658;29;2870;-71
2022/03/11 00:08:52;;;;;;;;;;;;;;;;;;1017330;29;4006;-71
2022/03/11 00:09:22;;;;;;;;;;;;;;;;;;1018153;29;2828;-72
2022/03/11 00:09:52;;;;;;;;;;;;;;;;;;1022347;28;4132;-71
2022/03/11 00:10:23;;;;;;;;;;;;;;;;;;1018121;29;2481;-71
2022/03/11 00:10:53;;;;;;;;;;;;;;;;;;1017111;29;3962;-72
2022/03/11 00:11:23;;;;;;;;;;;;;;;;;;1016280;29;3895;-71
2022/03/11 00:11:53;;;;;;;;;;;;;;;;;;1018327;29;4043;-71
2022/03/11 00:12:24;;;;;;;;;;;;;;;;;;1022669;28;2737;-71
2022/03/11 00:12:55;;;;;;;;;;;;;;;;;;1022554;28;3835;-71
2022/03/11 00:13:25;;;;;;;;;;;;;;;;;;1021318;28;2464;-71
2022/03/11 00:13:56;;;;;;;;;;;;;;;;;;1023087;28;3999;-71
2022/03/11 00:14:34;;;;;;;;;;;;;;;;;;1021982;28;2731;-71
2022/03/11 00:15:11;;;;;;;;;;;;;;;;;;1021900;28;4277;-71
2022/03/11 00:15:48;;;;;;;;;;;;;;;;;;1018992;29;3941;-71
2022/03/11 00:16:19;;;;;;;;;;;;;;;;;;1017474;29;3533;-71
2022/03/11 00:16:50;;;;;;;;;;;;;;;;;;1018560;29;3887;-71
2022/03/11 00:17:21;;;;;;;;;;;;;;;;;;1018916;29;2998;-71
2022/03/11 00:17:51;;;;;;;;;;;;;;;;;;1021517;28;4128;-71
2022/03/11 00:18:21;;;;;;;;;;;;;;;;;;1022103;28;2808;-72
2022/03/11 00:18:52;;;;;;;;;;;;;;;;;;1017497;28;3822;-72
2022/03/11 00:19:22;;;;;;;;;;;;;;;;;;1016962;29;2527;-72
2022/03/11 00:19:52;;;;;;;;;;;;;;;;;;1017821;29;3925;-72
2022/03/11 00:20:23;;;;;;;;;;;;;;;;;;1017195;29;2452;-72
2022/03/11 00:20:53;;;;;;;;;;;;;;;;;;1018308;29;4109;-72
2022/03/11 00:21:23;;;;;;;;;;;;;;;;;;1017117;29;3128;-72
2022/03/11 00:21:55;;;;;;;;;;;;;;;;;;1022099;28;4083;-72
2022/03/11 00:22:25;;;;;;;;;;;;;;;;;;1020213;28;3174;-72
2022/03/11 00:22:56;;;;;;;;;;;;;;;;;;1017283;29;3943;-72
2022/03/11 00:23:26;;;;;;;;;;;;;;;;;;1013482;29;2793;-72
2022/03/11 00:23:56;;;;;;;;;;;;;;;;;;1014111;29;4035;-71
2022/03/11 00:24:27;;;;;;;;;;;;;;;;;;1015227;29;2443;-72
2022/03/11 00:24:58;;;;;;;;;;;;;;;;;;1018439;29;4111;-72
2022/03/11 00:25:30;;;;;;;;;;;;;;;;;;1021441;28;3342;-72
2022/03/11 00:26:01;;;;;;;;;;;;;;;;;;1021456;28;3858;-71
2022/03/11 00:26:32;;;;;;;;;;;;;;;;;;1022591;28;2854;-72
2022/03/11 00:27:02;;;;;;;;;;;;;;;;;;1019303;28;4054;-72
2022/03/11 00:27:32;;;;;;;;;;;;;;;;;;1022288;28;2301;-72
2022/03/11 00:28:03;;;;;;;;;;;;;;;;;;1021182;28;3994;-73
2022/03/11 00:28:33;;;;;;;;;;;;;;;;;;1022707;28;2608;-72
2022/03/11 00:29:04;;;;;;;;;;;;;;;;;;1020283;28;4019;-72
2022/03/11 00:29:34;;;;;;;;;;;;;;;;;;1022618;28;2253;-72
2022/03/11 00:30:04;;;;;;;;;;;;;;;;;;1022369;28;3811;-72
2022/03/11 00:30:35;;;;;;;;;;;;;;;;;;1022094;28;3695;-71
2022/03/11 00:31:05;;;;;;;;;;;;;;;;;;1021939;28;4011;-72
2022/03/11 00:31:36;;;;;;;;;;;;;;;;;;1019234;28;2525;-72
2022/03/11 00:32:06;;;;;;;;;;;;;;;;;;1021897;29;3852;-72
2022/03/11 00:32:36;;;;;;;;;;;;;;;;;;1022901;28;2470;-72
2022/03/11 00:33:07;;;;;;;;;;;;;;;;;;1021533;28;4043;-72
2022/03/11 00:33:37;;;;;;;;;;;;;;;;;;1022372;28;2800;-72
2022/03/11 00:34:08;;;;;;;;;;;;;;;;;;1022020;28;4058;-72
2022/03/11 00:34:38;;;;;;;;;;;;;;;;;;1022090;28;3426;-72
2022/03/11 00:35:09;;;;;;;;;;;;;;;;;;1021457;28;3801;-71
2022/03/11 00:35:40;;;;;;;;;;;;;;;;;;1022834;28;1715;-71
2022/03/11 00:36:10;;;;;;;;;;;;;;;;;;1019504;28;3938;-72
2022/03/11 00:36:43;;;;;;;;;;;;;;;;;;1021786;28;3741;-71
2022/03/11 00:37:13;;;;;;;;;;;;;;;;;;1021473;28;3964;-72
2022/03/11 00:37:43;;;;;;;;;;;;;;;;;;1021005;28;4114;-72
2022/03/11 00:38:13;;;;;;;;;;;;;;;;;;1022448;29;2938;-71
2022/03/11 00:38:44;;;;;;;;;;;;;;;;;;1021607;28;4184;-71
2022/03/11 00:39:14;;;;;;;;;;;;;;;;;;1022509;28;2437;-72
2022/03/11 00:39:44;;;;;;;;;;;;;;;;;;1022046;28;4450;-72
2022/03/11 00:40:21;;;;;;;;;;;;;;;;;;1021564;28;2536;-72
2022/03/11 00:40:58;;;;;;;;;;;;;;;;;;1020122;28;4430;-72
2022/03/11 00:41:35;;;;;;;;;;;;;;;;;;1021646;28;2598;-71
2022/03/11 00:42:05;;;;;;;;;;;;;;;;;;1016184;28;4070;-72
2022/03/11 00:42:35;;;;;;;;;;;;;;;;;;1018374;29;2050;-72
2022/03/11 00:43:06;;;;;;;;;;;;;;;;;;1016414;29;3817;-72
2022/03/11 00:43:36;;;;;;;;;;;;;;;;;;1017652;29;2387;-72
2022/03/11 00:44:06;;;;;;;;;;;;;;;;;;1021138;28;4541;-71
2022/03/11 00:44:38;;;;;;;;;;;;;;;;;;1023240;28;2083;-71
2022/03/11 00:45:09;;;;;;;;;;;;;;;;;;1022060;28;3969;-71
2022/03/11 00:45:39;;;;;;;;;;;;;;;;;;1020005;28;3271;-71
2022/03/11 00:46:09;;;;;;;;;;;;;;;;;;1020723;28;3956;-71
2022/03/11 00:46:40;;;;;;;;;;;;;;;;;;1021459;28;3119;-72
2022/03/11 00:47:10;;;;;;;;;;;;;;;;;;1022156;28;3805;-72
2022/03/11 00:47:40;;;;;;;;;;;;;;;;;;1021153;28;2790;-72
2022/03/11 00:48:11;;;;;;;;;;;;;;;;;;1021413;28;3814;-72
2022/03/11 00:48:41;;;;;;;;;;;;;;;;;;1018766;29;2749;-71
2022/03/11 00:49:11;;;;;;;;;;;;;;;;;;1017918;29;3940;-72
2022/03/11 00:49:41;;;;;;;;;;;;;;;;;;1019345;29;1824;-71
2022/03/11 00:50:12;;;;;;;;;;;;;;;;;;1013459;29;3884;-72
2022/03/11 00:50:42;;;;;;;;;;;;;;;;;;1018757;29;2138;-72
2022/03/11 00:51:13;;;;;;;;;;;;;;;;;;1015912;29;3993;-72
2022/03/11 00:51:43;;;;;;;;;;;;;;;;;;1017301;29;3985;-72
2022/03/11 00:52:13;;;;;;;;;;;;;;;;;;1021611;28;2330;-72
2022/03/11 00:52:43;;;;;;;;;;;;;;;;;;1021896;28;4034;-71
2022/03/11 00:53:13;;;;;;;;;;;;;;;;;;1020167;28;3891;-72
2022/03/11 00:53:44;;;;;;;;;;;;;;;;;;1023186;28;4169;-72
2022/03/11 00:54:14;;;;;;;;;;;;;;;;;;1017803;29;2284;-72
2022/03/11 00:54:44;;;;;;;;;;;;;;;;;;1018078;29;3946;-72
2022/03/11 00:55:14;;;;;;;;;;;;;;;;;;1018129;29;2693;-72
2022/03/11 00:55:45;;;;;;;;;;;;;;;;;;1014515;29;3873;-72
2022/03/11 00:56:15;;;;;;;;;;;;;;;;;;1017417;29;2272;-71
2022/03/11 00:56:46;;;;;;;;;;;;;;;;;;1017956;29;3857;-72
2022/03/11 00:57:16;;;;;;;;;;;;;;;;;;1012744;29;4619;-71
2022/03/11 00:57:46;;;;;;;;;;;;;;;;;;1017726;29;4031;-71
2022/03/11 00:58:17;;;;;;;;;;;;;;;;;;1016548;29;2939;-72
2022/03/11 00:58:47;;;;;;;;;;;;;;;;;;1019077;29;3842;-71
2022/03/11 00:59:17;;;;;;;;;;;;;;;;;;1020745;28;3759;-71
2022/03/11 00:59:47;;;;;;;;;;;;;;;;;;1017411;29;4027;-72
2022/03/11 01:00:18;;;;;;;;;;;;;;;;;;1016924;29;2750;-72
2022/03/11 01:00:48;;;;;;;;;;;;;;;;;;1017694;29;3863;-72
2022/03/11 01:01:18;;;;;;;;;;;;;;;;;;1017597;29;2466;-72
2022/03/11 01:01:49;;;;;;;;;;;;;;;;;;1022052;28;4010;-72
2022/03/11 01:02:19;;;;;;;;;;;;;;;;;;1021907;29;2146;-72
2022/03/11 01:02:49;;;;;;;;;;;;;;;;;;1021939;28;4456;-72
2022/03/11 01:03:20;;;;;;;;;;;;;;;;;;1020762;29;3584;-71
2022/03/11 01:03:50;;;;;;;;;;;;;;;;;;1020597;28;4107;-72
2022/03/11 01:04:21;;;;;;;;;;;;;;;;;;1022556;29;2503;-72
2022/03/11 01:04:51;;;;;;;;;;;;;;;;;;1021788;28;4154;-71
2022/03/11 01:05:24;;;;;;;;;;;;;;;;;;1021933;28;2635;-72
2022/03/11 01:05:55;;;;;;;;;;;;;;;;;;1022092;29;4150;-71
2022/03/11 01:06:25;;;;;;;;;;;;;;;;;;1021219;29;3469;-72
2022/03/11 01:06:55;;;;;;;;;;;;;;;;;;1020997;28;4090;-71
2022/03/11 01:07:25;;;;;;;;;;;;;;;;;;1021161;28;4337;-72
2022/03/11 01:07:57;;;;;;;;;;;;;;;;;;1022973;28;4068;-72
2022/03/11 01:08:27;;;;;;;;;;;;;;;;;;1020967;28;2757;-72
2022/03/11 01:08:57;;;;;;;;;;;;;;;;;;1022834;28;4001;-72
2022/03/11 01:09:27;;;;;;;;;;;;;;;;;;1020156;28;3799;-71
2022/03/11 01:09:57;;;;;;;;;;;;;;;;;;1021493;29;3985;-72
2022/03/11 01:10:28;;;;;;;;;;;;;;;;;;1021350;29;3125;-71
2022/03/11 01:10:58;;;;;;;;;;;;;;;;;;1021547;28;3905;-72
2022/03/11 01:11:28;;;;;;;;;;;;;;;;;;1020573;28;2973;-72
2022/03/11 01:11:59;;;;;;;;;;;;;;;;;;1021650;28;3981;-71
2022/03/11 01:12:29;;;;;;;;;;;;;;;;;;1019556;28;2949;-72
2022/03/11 01:12:59;;;;;;;;;;;;;;;;;;1021728;29;4107;-72
2022/03/11 01:13:29;;;;;;;;;;;;;;;;;;1021914;28;2548;-71
2022/03/11 01:14:00;;;;;;;;;;;;;;;;;;1018246;29;4068;-71
2022/03/11 01:14:37;;;;;;;;;;;;;;;;;;1014748;29;2982;-71
2022/03/11 01:15:14;;;;;;;;;;;;;;;;;;1011997;29;4045;-72
2022/03/11 01:15:51;;;;;;;;;;;;;;;;;;1014332;29;3900;-72
2022/03/11 01:16:23;;;;;;;;;;;;;;;;;;1016274;29;2231;-72
2022/03/11 01:16:53;;;;;;;;;;;;;;;;;;1018279;29;4469;-72
2022/03/11 01:17:23;;;;;;;;;;;;;;;;;;1017036;29;2563;-72
2022/03/11 01:17:54;;;;;;;;;;;;;;;;;;1018560;29;4005;-72
2022/03/11 01:18:24;;;;;;;;;;;;;;;;;;1017326;29;2925;-72
2022/03/11 01:18:54;;;;;;;;;;;;;;;;;;1017705;29;3911;-72
2022/03/11 01:19:24;;;;;;;;;;;;;;;;;;1017254;29;2708;-71
2022/03/11 01:19:55;;;;;;;;;;;;;;;;;;1018026;29;3829;-72
2022/03/11 01:20:25;;;;;;;;;;;;;;;;;;1017917;29;2374;-72
2022/03/11 01:20:56;;;;;;;;;;;;;;;;;;1018202;29;4004;-72
2022/03/11 01:21:26;;;;;;;;;;;;;;;;;;1017094;29;2556;-72
2022/03/11 01:21:57;;;;;;;;;;;;;;;;;;1016680;29;3912;-72
2022/03/11 01:22:27;;;;;;;;;;;;;;;;;;1012902;29;2909;-72
2022/03/11 01:22:58;;;;;;;;;;;;;;;;;;1014070;29;3806;-72
2022/03/11 01:23:28;;;;;;;;;;;;;;;;;;1011925;29;4171;-72
2022/03/11 01:23:58;;;;;;;;;;;;;;;;;;1012775;29;4001;-72
2022/03/11 01:24:28;;;;;;;;;;;;;;;;;;1017612;29;2444;-71
2022/03/11 01:24:59;;;;;;;;;;;;;;;;;;1014496;29;4090;-71
2022/03/11 01:25:29;;;;;;;;;;;;;;;;;;1012569;29;2584;-72
2022/03/11 01:25:59;;;;;;;;;;;;;;;;;;1013676;29;3849;-71
2022/03/11 01:26:29;;;;;;;;;;;;;;;;;;1012782;29;2746;-72
2022/03/11 01:27:00;;;;;;;;;;;;;;;;;;1017944;29;3814;-72
2022/03/11 01:27:31;;;;;;;;;;;;;;;;;;1018090;29;2567;-71
2022/03/11 01:28:01;;;;;;;;;;;;;;;;;;1018899;29;4056;-72
2022/03/11 01:28:31;;;;;;;;;;;;;;;;;;1017759;29;2986;-72
2022/03/11 01:29:02;;;;;;;;;;;;;;;;;;1018349;29;4288;-71
2022/03/11 01:29:32;;;;;;;;;;;;;;;;;;1013654;29;3110;-72
2022/03/11 01:30:04;;;;;;;;;;;;;;;;;;1011925;29;3970;-71
2022/03/11 01:30:34;;;;;;;;;;;;;;;;;;1013773;29;3134;-72
2022/03/11 01:31:04;;;;;;;;;;;;;;;;;;1013697;29;4087;-71
2022/03/11 01:31:35;;;;;;;;;;;;;;;;;;1018325;29;2709;-72
2022/03/11 01:32:05;;;;;;;;;;;;;;;;;;1017218;29;4053;-71
2022/03/11 01:32:36;;;;;;;;;;;;;;;;;;1018848;29;2709;-72
2022/03/11 01:33:06;;;;;;;;;;;;;;;;;;1017844;29;3827;-72
2022/03/11 01:33:36;;;;;;;;;;;;;;;;;;1018468;29;2932;-72
2022/03/11 01:34:08;;;;;;;;;;;;;;;;;;1018010;29;3829;-71
2022/03/11 01:34:38;;;;;;;;;;;;;;;;;;1018924;29;3280;-71
2022/03/11 01:35:09;;;;;;;;;;;;;;;;;;1018172;29;3774;-72
2022/03/11 01:35:40;;;;;;;;;;;;;;;;;;1016185;29;2741;-72
2022/03/11 01:36:11;;;;;;;;;;;;;;;;;;1013447;29;3755;-71
2022/03/11 01:36:41;;;;;;;;;;;;;;;;;;1014043;29;3770;-72
2022/03/11 01:37:11;;;;;;;;;;;;;;;;;;1014588;29;4007;-72
2022/03/11 01:37:42;;;;;;;;;;;;;;;;;;1019154;29;2143;-72
2022/03/11 01:38:12;;;;;;;;;;;;;;;;;;1016588;29;3759;-72
2022/03/11 01:38:43;;;;;;;;;;;;;;;;;;1017801;29;3903;-72
2022/03/11 01:39:14;;;;;;;;;;;;;;;;;;1017330;29;2141;-72
2022/03/11 01:39:44;;;;;;;;;;;;;;;;;;1017930;29;3848;-72
2022/03/11 01:40:14;;;;;;;;;;;;;;;;;;1017538;29;2487;-71
2022/03/11 01:40:51;;;;;;;;;;;;;;;;;;1018081;29;4014;-71
2022/03/11 01:41:21;;;;;;;;;;;;;;;;;;1016513;29;2904;-72
2022/03/11 01:41:52;;;;;;;;;;;;;;;;;;1018119;29;4143;-71
2022/03/11 01:42:22;;;;;;;;;;;;;;;;;;1016480;29;2677;-72
2022/03/11 01:42:52;;;;;;;;;;;;;;;;;;1018410;29;4063;-72
2022/03/11 01:43:23;;;;;;;;;;;;;;;;;;1018048;29;2153;-72
2022/03/11 01:43:58;;;;;;;;;;;;;;;;;;1015902;29;3843;-72
2022/03/11 01:44:29;;;;;;;;;;;;;;;;;;1016839;29;3261;-72
2022/03/11 01:44:59;;;;;;;;;;;;;;;;;;1018101;29;3997;-72
2022/03/11 01:45:29;;;;;;;;;;;;;;;;;;1017374;29;3209;-72
2022/03/11 01:46:01;;;;;;;;;;;;;;;;;;1017557;29;4116;-72
2022/03/11 01:46:31;;;;;;;;;;;;;;;;;;1018391;29;2669;-72
2022/03/11 01:47:02;;;;;;;;;;;;;;;;;;1017775;29;5034;-72
2022/03/11 01:47:32;;;;;;;;;;;;;;;;;;1018600;29;2454;-71
2022/03/11 01:48:02;;;;;;;;;;;;;;;;;;1017050;29;3963;-72
2022/03/11 01:48:33;;;;;;;;;;;;;;;;;;1017209;29;2463;-72
2022/03/11 01:49:04;;;;;;;;;;;;;;;;;;1015441;29;4138;-71
2022/03/11 01:49:35;;;;;;;;;;;;;;;;;;1017377;29;3619;-72
2022/03/11 01:50:05;;;;;;;;;;;;;;;;;;1016595;29;3984;-72
2022/03/11 01:50:35;;;;;;;;;;;;;;;;;;1018188;29;2871;-71
2022/03/11 01:51:06;;;;;;;;;;;;;;;;;;1016787;29;3961;-71
2022/03/11 01:51:37;;;;;;;;;;;;;;;;;;1017075;29;2787;-72
2022/03/11 01:52:09;;;;;;;;;;;;;;;;;;1016582;29;4004;-72
2022/03/11 01:52:39;;;;;;;;;;;;;;;;;;1017644;29;3866;-72
2022/03/11 01:53:11;;;;;;;;;;;;;;;;;;1013250;29;4326;-72
2022/03/11 01:53:41;;;;;;;;;;;;;;;;;;1011783;29;3351;-72
2022/03/11 01:54:12;;;;;;;;;;;;;;;;;;1012874;29;4356;-72
2022/03/11 01:54:43;;;;;;;;;;;;;;;;;;1014185;29;3159;-72
2022/03/11 01:55:20;;;;;;;;;;;;;;;;;;1017034;29;3695;-72
2022/03/11 01:55:50;;;;;;;;;;;;;;;;;;1017498;29;4104;-72
2022/03/11 01:56:21;;;;;;;;;;;;;;;;;;1012306;29;2351;-71
2022/03/11 01:56:52;;;;;;;;;;;;;;;;;;1013230;29;4647;-72
2022/03/11 01:57:23;;;;;;;;;;;;;;;;;;1011677;29;3752;-72
2022/03/11 01:57:53;;;;;;;;;;;;;;;;;;1013929;29;3889;-72
2022/03/11 01:58:24;;;;;;;;;;;;;;;;;;1015300;29;3539;-72
2022/03/11 01:58:57;;;;;;;;;;;;;;;;;;1018625;29;4013;-72
2022/03/11 01:59:27;;;;;;;;;;;;;;;;;;1017197;29;2841;-72
2022/03/11 01:59:57;;;;;;;;;;;;;;;;;;1016755;29;4091;-72
2022/03/11 02:00:28;;;;;;;;;;;;;;;;;;1017509;29;2691;-72
2022/03/11 02:00:58;;;;;;;;;;;;;;;;;;1017194;29;3917;-71
2022/03/11 02:01:28;;;;;;;;;;;;;;;;;;1016252;29;2859;-72
2022/03/11 02:01:59;;;;;;;;;;;;;;;;;;1016951;29;4019;-72
2022/03/11 02:02:29;;;;;;;;;;;;;;;;;;1016161;29;3900;-72
2022/03/11 02:02:59;;;;;;;;;;;;;;;;;;1016209;29;3922;-72
2022/03/11 02:03:30;;;;;;;;;;;;;;;;;;1017673;29;2392;-71
2022/03/11 02:04:00;;;;;;;;;;;;;;;;;;1016118;29;4064;-72
2022/03/11 02:04:30;;;;;;;;;;;;;;;;;;1018353;29;2812;-71
2022/03/11 02:05:00;;;;;;;;;;;;;;;;;;1017883;29;4083;-72
2022/03/11 02:05:31;;;;;;;;;;;;;;;;;;1016960;29;3639;-72
2022/03/11 02:06:02;;;;;;;;;;;;;;;;;;1016804;29;3838;-71
2022/03/11 02:06:32;;;;;;;;;;;;;;;;;;1016338;29;2059;-72
2022/03/11 02:07:04;;;;;;;;;;;;;;;;;;1014321;29;3851;-72
2022/03/11 02:07:35;;;;;;;;;;;;;;;;;;1014083;29;2220;-72
2022/03/11 02:08:05;;;;;;;;;;;;;;;;;;1011525;29;4637;-72
2022/03/11 02:08:35;;;;;;;;;;;;;;;;;;1014676;29;1993;-72
2022/03/11 02:09:06;;;;;;;;;;;;;;;;;;1017816;29;3970;-71
2022/03/11 02:09:36;;;;;;;;;;;;;;;;;;1017774;29;3827;-72
2022/03/11 02:10:07;;;;;;;;;;;;;;;;;;1016072;29;3830;-72
2022/03/11 02:10:37;;;;;;;;;;;;;;;;;;1018261;29;2527;-72
2022/03/11 02:11:08;;;;;;;;;;;;;;;;;;1015581;29;3912;-71
2022/03/11 02:11:39;;;;;;;;;;;;;;;;;;1014766;29;2524;-71
2022/03/11 02:12:09;;;;;;;;;;;;;;;;;;1011798;29;4016;-72
2022/03/11 02:12:39;;;;;;;;;;;;;;;;;;1015100;29;1890;-72
2022/03/11 02:13:10;;;;;;;;;;;;;;;;;;1011406;29;4257;-72
2022/03/11 02:13:44;;;;;;;;;;;;;;;;;;1017982;29;3891;-72
2022/03/11 02:14:14;;;;;;;;;;;;;;;;;;1017288;29;3790;-71
2022/03/11 02:14:51;;;;;;;;;;;;;;;;;;1018896;28;4056;-72
2022/03/11 02:15:28;;;;;;;;;;;;;;;;;;1021083;28;3123;-72
2022/03/11 02:16:05;;;;;;;;;;;;;;;;;;1020761;28;4004;-72
2022/03/11 02:16:40;;;;;;;;;;;;;;;;;;1020747;29;3114;-72
2022/03/11 02:17:10;;;;;;;;;;;;;;;;;;1020055;28;4096;-72
2022/03/11 02:17:40;;;;;;;;;;;;;;;;;;1022094;28;2953;-72
2022/03/11 02:18:11;;;;;;;;;;;;;;;;;;1021192;28;4061;-71
2022/03/11 02:18:41;;;;;;;;;;;;;;;;;;1023584;28;1468;-72
2022/03/11 02:19:11;;;;;;;;;;;;;;;;;;1021274;28;3787;-71
2022/03/11 02:19:42;;;;;;;;;;;;;;;;;;1015870;29;3821;-72
2022/03/11 02:20:12;;;;;;;;;;;;;;;;;;1015223;29;4134;-72
2022/03/11 02:20:43;;;;;;;;;;;;;;;;;;1017928;29;3669;-72
2022/03/11 02:21:15;;;;;;;;;;;;;;;;;;1017241;29;3702;-72
2022/03/11 02:21:46;;;;;;;;;;;;;;;;;;1021615;28;4080;-72
2022/03/11 02:22:17;;;;;;;;;;;;;;;;;;1020257;28;3942;-72
2022/03/11 02:22:49;;;;;;;;;;;;;;;;;;1021342;28;4046;-71
2022/03/11 02:23:19;;;;;;;;;;;;;;;;;;1020418;28;2640;-72
2022/03/11 02:23:57;;;;;;;;;;;;;;;;;;1020840;28;4138;-71
2022/03/11 02:24:27;;;;;;;;;;;;;;;;;;1021348;29;2598;-72
2022/03/11 02:24:58;;;;;;;;;;;;;;;;;;1021541;28;3985;-71
2022/03/11 02:25:28;;;;;;;;;;;;;;;;;;1021118;28;2689;-72
2022/03/11 02:25:58;;;;;;;;;;;;;;;;;;1020843;28;4073;-72
2022/03/11 02:26:29;;;;;;;;;;;;;;;;;;1020941;28;2277;-72
2022/03/11 02:26:59;;;;;;;;;;;;;;;;;;1021776;28;4110;-72
2022/03/11 02:27:33;;;;;;;;;;;;;;;;;;1019462;28;2764;-71
2022/03/11 02:28:04;;;;;;;;;;;;;;;;;;1020521;28;3813;-72
2022/03/11 02:28:34;;;;;;;;;;;;;;;;;;1021990;28;2812;-72
2022/03/11 02:29:05;;;;;;;;;;;;;;;;;;1022117;29;4077;-72
2022/03/11 02:29:36;;;;;;;;;;;;;;;;;;1022517;28;2974;-71
2022/03/11 02:30:13;;;;;;;;;;;;;;;;;;1020505;28;3967;-71
2022/03/11 02:30:44;;;;;;;;;;;;;;;;;;1020962;28;4084;-72
2022/03/11 02:31:14;;;;;;;;;;;;;;;;;;1021341;28;3125;-72
2022/03/11 02:31:44;;;;;;;;;;;;;;;;;;1021939;28;4579;-72
2022/03/11 02:32:14;;;;;;;;;;;;;;;;;;1020944;28;2446;-72
2022/03/11 02:32:45;;;;;;;;;;;;;;;;;;1021330;28;4104;-71
2022/03/11 02:33:15;;;;;;;;;;;;;;;;;;1022098;29;2835;-71
2022/03/11 02:33:45;;;;;;;;;;;;;;;;;;1020850;28;4065;-72
2022/03/11 02:34:16;;;;;;;;;;;;;;;;;;1021599;28;2347;-72
2022/03/11 02:34:46;;;;;;;;;;;;;;;;;;1019601;28;4091;-72
2022/03/11 02:35:17;;;;;;;;;;;;;;;;;;1020963;28;2520;-72
2022/03/11 02:35:47;;;;;;;;;;;;;;;;;;1021257;28;4644;-72
2022/03/11 02:36:18;;;;;;;;;;;;;;;;;;1019494;28;4032;-72
2022/03/11 02:36:48;;;;;;;;;;;;;;;;;;1021726;28;3869;-72
2022/03/11 02:37:18;;;;;;;;;;;;;;;;;;1016462;29;2148;-72
2022/03/11 02:37:49;;;;;;;;;;;;;;;;;;1017282;29;4130;-72
2022/03/11 02:38:19;;;;;;;;;;;;;;;;;;1015801;29;2703;-72
2022/03/11 02:38:50;;;;;;;;;;;;;;;;;;1018101;29;4106;-72
2022/03/11 02:39:20;;;;;;;;;;;;;;;;;;1021307;29;2849;-72
2022/03/11 02:39:52;;;;;;;;;;;;;;;;;;1021675;28;3937;-72
2022/03/11 02:40:22;;;;;;;;;;;;;;;;;;1020972;28;2354;-71
2022/03/11 02:40:52;;;;;;;;;;;;;;;;;;1021900;28;4148;-72
2022/03/11 02:41:23;;;;;;;;;;;;;;;;;;1022584;28;1795;-72
2022/03/11 02:41:53;;;;;;;;;;;;;;;;;;1021880;28;4123;-72
2022/03/11 02:42:24;;;;;;;;;;;;;;;;;;1021864;28;2477;-72
2022/03/11 02:42:54;;;;;;;;;;;;;;;;;;1022400;28;3834;-71
2022/03/11 02:43:25;;;;;;;;;;;;;;;;;;1021577;28;2818;-72
2022/03/11 02:43:55;;;;;;;;;;;;;;;;;;1021328;28;3847;-71
2022/03/11 02:44:29;;;;;;;;;;;;;;;;;;1022584;28;2279;-71
2022/03/11 02:45:00;;;;;;;;;;;;;;;;;;1021843;28;4284;-72
2022/03/11 02:45:30;;;;;;;;;;;;;;;;;;1015987;29;3101;-72
2022/03/11 02:46:00;;;;;;;;;;;;;;;;;;1016449;29;4016;-71
2022/03/11 02:46:32;;;;;;;;;;;;;;;;;;1016384;29;3750;-71
2022/03/11 02:47:02;;;;;;;;;;;;;;;;;;1016727;29;3849;-72
2022/03/11 02:47:32;;;;;;;;;;;;;;;;;;1020589;28;3177;-71
2022/03/11 02:48:03;;;;;;;;;;;;;;;;;;1021553;29;4011;-71
2022/03/11 02:48:34;;;;;;;;;;;;;;;;;;1021476;29;2137;-72
2022/03/11 02:49:04;;;;;;;;;;;;;;;;;;1019992;28;4114;-72
2022/03/11 02:49:34;;;;;;;;;;;;;;;;;;1023184;28;3090;-71
2022/03/11 02:50:05;;;;;;;;;;;;;;;;;;1018542;28;4261;-71
2022/03/11 02:50:36;;;;;;;;;;;;;;;;;;1022362;28;2412;-71
2022/03/11 02:51:06;;;;;;;;;;;;;;;;;;1014905;29;3997;-71
2022/03/11 02:51:36;;;;;;;;;;;;;;;;;;1017042;29;2582;-71
2022/03/11 02:52:07;;;;;;;;;;;;;;;;;;1015859;29;3859;-71
2022/03/11 02:52:37;;;;;;;;;;;;;;;;;;1018562;29;2271;-71
2022/03/11 02:53:07;;;;;;;;;;;;;;;;;;1022087;28;3876;-71
2022/03/11 02:53:40;;;;;;;;;;;;;;;;;;1022155;28;2454;-71
2022/03/11 02:54:11;;;;;;;;;;;;;;;;;;1020905;28;3883;-71
2022/03/11 02:54:41;;;;;;;;;;;;;;;;;;1021234;29;3622;-71
2022/03/11 02:55:18;;;;;;;;;;;;;;;;;;1020425;28;4049;-71
2022/03/11 02:55:48;;;;;;;;;;;;;;;;;;1016376;29;4046;-71
2022/03/11 02:56:21;;;;;;;;;;;;;;;;;;1014815;29;3789;-71
2022/03/11 02:56:51;;;;;;;;;;;;;;;;;;1017288;29;3847;-71
2022/03/11 02:57:21;;;;;;;;;;;;;;;;;;1017326;29;3705;-71
2022/03/11 02:57:52;;;;;;;;;;;;;;;;;;1021824;28;4012;-71
2022/03/11 02:58:22;;;;;;;;;;;;;;;;;;1021737;28;2836;-71
2022/03/11 02:58:52;;;;;;;;;;;;;;;;;;1021708;28;4089;-71
2022/03/11 02:59:22;;;;;;;;;;;;;;;;;;1022280;29;1954;-71
2022/03/11 02:59:53;;;;;;;;;;;;;;;;;;1020864;28;4078;-71
2022/03/11 03:00:23;;;;;;;;;;;;;;;;;;1018957;28;3732;-71
2022/03/11 03:00:54;;;;;;;;;;;;;;;;;;1022269;28;4149;-71
2022/03/11 03:01:24;;;;;;;;;;;;;;;;;;1022012;28;2229;-71
2022/03/11 03:01:54;;;;;;;;;;;;;;;;;;1021381;28;3975;-72
2022/03/11 03:02:24;;;;;;;;;;;;;;;;;;1017697;29;2763;-72
2022/03/11 03:02:55;;;;;;;;;;;;;;;;;;1017991;29;3994;-71
2022/03/11 03:03:26;;;;;;;;;;;;;;;;;;1016776;29;2618;-71
2022/03/11 03:03:56;;;;;;;;;;;;;;;;;;1016270;29;4123;-71
2022/03/11 03:04:26;;;;;;;;;;;;;;;;;;1022466;28;2826;-71
2022/03/11 03:04:56;;;;;;;;;;;;;;;;;;1022161;28;3833;-71
2022/03/11 03:05:27;;;;;;;;;;;;;;;;;;1022413;28;2385;-71
2022/03/11 03:05:57;;;;;;;;;;;;;;;;;;1020194;28;4078;-71
2022/03/11 03:06:28;;;;;;;;;;;;;;;;;;1022049;28;2774;-71
2022/03/11 03:06:58;;;;;;;;;;;;;;;;;;1019884;28;3965;-71
2022/03/11 03:07:28;;;;;;;;;;;;;;;;;;1021734;28;2613;-71
2022/03/11 03:07:58;;;;;;;;;;;;;;;;;;1021155;28;4057;-72
2022/03/11 03:08:29;;;;;;;;;;;;;;;;;;1021846;29;1946;-71
2022/03/11 03:08:59;;;;;;;;;;;;;;;;;;1020880;28;3850;-71
2022/03/11 03:09:29;;;;;;;;;;;;;;;;;;1021389;28;2951;-72
2022/03/11 03:09:59;;;;;;;;;;;;;;;;;;1020792;28;4429;-72
2022/03/11 03:10:30;;;;;;;;;;;;;;;;;;1020545;28;2898;-71
2022/03/11 03:11:00;;;;;;;;;;;;;;;;;;1021868;28;4074;-71
2022/03/11 03:11:30;;;;;;;;;;;;;;;;;;1017615;29;3480;-71
2022/03/11 03:12:01;;;;;;;;;;;;;;;;;;1015270;29;4224;-71
2022/03/11 03:12:32;;;;;;;;;;;;;;;;;;1017274;29;2487;-71
2022/03/11 03:13:02;;;;;;;;;;;;;;;;;;1017511;29;3952;-71
2022/03/11 03:13:33;;;;;;;;;;;;;;;;;;1022315;29;2748;-71
2022/03/11 03:14:03;;;;;;;;;;;;;;;;;;1021338;28;3916;-71
2022/03/11 03:14:33;;;;;;;;;;;;;;;;;;1021376;28;2204;-71
2022/03/11 03:15:11;;;;;;;;;;;;;;;;;;1020945;28;3971;-72
2022/03/11 03:15:48;;;;;;;;;;;;;;;;;;1018027;29;3160;-71
2022/03/11 03:16:25;;;;;;;;;;;;;;;;;;1016949;29;4006;-71
2022/03/11 03:16:55;;;;;;;;;;;;;;;;;;1018381;29;4010;-72
2022/03/11 03:17:26;;;;;;;;;;;;;;;;;;1016292;29;2483;-71
2022/03/11 03:17:56;;;;;;;;;;;;;;;;;;1018242;29;4411;-71
2022/03/11 03:18:26;;;;;;;;;;;;;;;;;;1021750;28;2061;-72
2022/03/11 03:18:56;;;;;;;;;;;;;;;;;;1021260;28;4169;-72
2022/03/11 03:19:27;;;;;;;;;;;;;;;;;;1021594;28;2799;-71
2022/03/11 03:19:57;;;;;;;;;;;;;;;;;;1021493;28;3856;-72
2022/03/11 03:20:27;;;;;;;;;;;;;;;;;;1020987;28;3144;-71
2022/03/11 03:20:58;;;;;;;;;;;;;;;;;;1021583;29;4013;-71
2022/03/11 03:21:28;;;;;;;;;;;;;;;;;;1021494;28;2768;-71
2022/03/11 03:21:59;;;;;;;;;;;;;;;;;;1020217;28;4034;-71
2022/03/11 03:22:29;;;;;;;;;;;;;;;;;;1021946;28;2394;-71
2022/03/11 03:22:59;;;;;;;;;;;;;;;;;;1017047;29;3933;-72
2022/03/11 03:23:29;;;;;;;;;;;;;;;;;;1017100;29;2794;-71
2022/03/11 03:24:00;;;;;;;;;;;;;;;;;;1018271;29;3856;-71
2022/03/11 03:24:30;;;;;;;;;;;;;;;;;;1016429;29;3649;-71
2022/03/11 03:25:01;;;;;;;;;;;;;;;;;;1020833;28;3913;-72
2022/03/11 03:25:31;;;;;;;;;;;;;;;;;;1020291;28;4130;-72
2022/03/11 03:26:01;;;;;;;;;;;;;;;;;;1021775;28;3940;-71
2022/03/11 03:26:32;;;;;;;;;;;;;;;;;;1020091;28;3773;-72
2022/03/11 03:27:02;;;;;;;;;;;;;;;;;;1020788;28;3943;-71
2022/03/11 03:27:33;;;;;;;;;;;;;;;;;;1018675;29;1969;-71
2022/03/11 03:28:03;;;;;;;;;;;;;;;;;;1017378;29;3838;-71
2022/03/11 03:28:33;;;;;;;;;;;;;;;;;;1019078;29;1878;-71
2022/03/11 03:29:04;;;;;;;;;;;;;;;;;;1016898;28;3811;-71
2022/03/11 03:29:34;;;;;;;;;;;;;;;;;;1022736;28;2155;-72
2022/03/11 03:30:05;;;;;;;;;;;;;;;;;;1018581;28;4253;-71
2022/03/11 03:30:35;;;;;;;;;;;;;;;;;;1022519;28;2696;-71
2022/03/11 03:31:05;;;;;;;;;;;;;;;;;;1018899;28;4171;-72
2022/03/11 03:31:36;;;;;;;;;;;;;;;;;;1021164;28;3615;-71
2022/03/11 03:32:06;;;;;;;;;;;;;;;;;;1021751;28;4115;-72
2022/03/11 03:32:38;;;;;;;;;;;;;;;;;;1017523;29;3102;-72
2022/03/11 03:33:09;;;;;;;;;;;;;;;;;;1017800;29;3989;-71
2022/03/11 03:33:39;;;;;;;;;;;;;;;;;;1016646;29;2927;-71
2022/03/11 03:34:09;;;;;;;;;;;;;;;;;;1016601;29;4055;-71
2022/03/11 03:34:39;;;;;;;;;;;;;;;;;;1021931;28;1874;-70